createdAt,value
2018-03-22T00:00:10.005Z,100018.68
2018-03-22T00:02:37.639Z,100028.28
2018-03-22T00:05:05.257Z,100034.41
2018-03-22T00:07:32.848Z,100030.02
2018-03-22T00:10:00.475Z,100017.83
2018-03-22T00:12:28.078Z,100014.03
2018-03-22T00:14:55.677Z,100011.36
2018-03-22T00:17:23.460Z,100004.05
2018-03-22T00:19:51.060Z,100004.39
2018-03-22T00:25:17.804Z,100007.46
2018-03-22T00:27:45.450Z,100005.78
2018-03-22T00:30:13.075Z,100002.62
2018-03-22T00:32:40.769Z,99996.93
2018-03-22T00:35:08.432Z,100001.34
2018-03-22T00:37:36.023Z,100013.06
2018-03-22T00:40:03.707Z,100026.94
2018-03-22T00:42:31.306Z,100025.66
2018-03-22T00:44:58.899Z,100032.20
2018-03-22T00:47:26.568Z,100025.28
2018-03-22T00:49:54.179Z,100020.10
2018-03-22T00:52:21.829Z,100022.67
2018-03-22T00:54:49.460Z,100029.85
2018-03-22T00:57:17.103Z,100033.70
2018-03-22T00:59:44.717Z,100046.95
2018-03-22T01:02:12.369Z,100029.93
2018-03-22T01:04:39.967Z,100037.34
2018-03-22T01:07:07.587Z,100028.59
2018-03-22T01:09:35.200Z,100034.31
2018-03-22T01:12:02.786Z,100035.20
2018-03-22T01:14:30.426Z,100036.52
2018-03-22T01:16:58.030Z,100035.61
2018-03-22T01:19:25.678Z,100031.75
2018-03-22T01:21:53.302Z,100030.89
2018-03-22T01:24:20.900Z,100021.33
2018-03-22T01:26:48.534Z,100027.42
2018-03-22T01:29:16.131Z,100031.77
2018-03-22T01:31:43.722Z,100031.38
2018-03-22T01:34:11.338Z,100036.98
2018-03-22T01:36:38.944Z,100039.19
2018-03-22T01:39:06.588Z,100043.54
2018-03-22T01:41:34.183Z,100045.24
2018-03-22T01:44:01.808Z,100048.30
2018-03-22T01:46:29.443Z,100033.94
2018-03-22T01:48:57.031Z,100031.76
2018-03-22T01:51:24.627Z,100041.30
2018-03-22T01:53:52.227Z,100050.91
2018-03-22T01:56:19.843Z,100044.77
2018-03-22T01:58:47.474Z,100046.52
2018-03-22T02:01:15.075Z,100032.17
2018-03-22T02:03:42.667Z,100041.73
2018-03-22T02:06:10.339Z,100056.08
2018-03-22T02:08:37.946Z,100071.71
2018-03-22T02:11:05.546Z,100063.02
2018-03-22T02:13:33.190Z,100056.45
2018-03-22T02:16:00.770Z,100042.55
2018-03-22T02:18:28.354Z,100062.52
2018-03-22T02:20:55.974Z,100053.47
2018-03-22T02:23:23.563Z,100052.16
2018-03-22T02:25:51.175Z,100048.69
2018-03-22T02:28:18.790Z,100037.37
2018-03-22T02:30:46.375Z,100045.64
2018-03-22T02:33:13.999Z,100058.23
2018-03-22T02:35:41.587Z,100058.25
2018-03-22T02:38:09.202Z,100042.53
2018-03-22T02:40:36.846Z,100037.31
2018-03-22T02:43:04.502Z,100054.69
2018-03-22T02:45:32.101Z,100043.83
2018-03-22T02:47:59.708Z,100030.78
2018-03-22T02:50:27.299Z,100030.34
2018-03-22T02:52:54.962Z,100041.23
2018-03-22T02:55:22.551Z,100047.77
2018-03-22T02:57:50.139Z,100054.34
2018-03-22T03:00:17.853Z,100045.20
2018-03-22T03:02:45.442Z,100056.02
2018-03-22T03:05:13.044Z,100059.48
2018-03-22T03:07:40.667Z,100051.27
2018-03-22T03:10:08.354Z,100065.62
2018-03-22T03:12:35.971Z,100077.80
2018-03-22T03:15:03.622Z,100081.22
2018-03-22T03:17:31.308Z,100079.12
2018-03-22T03:19:58.899Z,100072.16
2018-03-22T03:22:26.539Z,100076.12
2018-03-22T03:24:54.151Z,100069.61
2018-03-22T03:27:21.791Z,100066.56
2018-03-22T03:29:49.590Z,100074.39
2018-03-22T03:32:17.211Z,100077.44
2018-03-22T03:34:44.831Z,100079.17
2018-03-22T03:37:12.644Z,100089.17
2018-03-22T03:39:40.285Z,100098.70
2018-03-22T03:42:08.382Z,100100.00
2018-03-22T03:44:36.063Z,100100.41
2018-03-22T03:47:03.669Z,100102.66
2018-03-22T03:49:31.265Z,100100.00
2018-03-22T03:51:58.855Z,100095.17
2018-03-22T03:54:26.444Z,100098.25
2018-03-22T03:56:54.088Z,100102.13
2018-03-22T03:59:21.682Z,100114.20
2018-03-22T04:01:49.298Z,100117.16
2018-03-22T04:04:16.974Z,100116.78
2018-03-22T04:06:44.654Z,100113.38
2018-03-22T04:09:12.288Z,100112.48
2018-03-22T04:11:39.899Z,100108.16
2018-03-22T04:14:07.490Z,100101.59
2018-03-22T04:16:35.203Z,100111.61
2018-03-22T04:19:02.815Z,100102.02
2018-03-22T04:21:30.872Z,100106.61
2018-03-22T04:23:58.832Z,100112.22
2018-03-22T04:26:26.421Z,100113.58
2018-03-22T04:28:54.107Z,100109.15
2018-03-22T04:31:21.715Z,100109.16
2018-03-22T04:33:49.366Z,100107.38
2018-03-22T04:36:16.994Z,100110.25
2018-03-22T04:38:44.827Z,100117.56
2018-03-22T04:41:12.714Z,100126.61
2018-03-22T04:43:40.395Z,100120.06
2018-03-22T04:46:08.208Z,100121.14
2018-03-22T04:48:35.903Z,100114.49
2018-03-22T04:51:03.570Z,100118.81
2018-03-22T04:53:31.255Z,100124.26
2018-03-22T04:55:58.942Z,100132.63
2018-03-22T04:58:26.531Z,100133.80
2018-03-22T05:00:54.201Z,100128.15
2018-03-22T05:03:21.855Z,100117.91
2018-03-22T05:05:49.498Z,100117.42
2018-03-22T05:08:17.128Z,100124.56
2018-03-22T05:10:44.730Z,100124.17
2018-03-22T05:13:12.330Z,100133.46
2018-03-22T05:15:39.951Z,100122.27
2018-03-22T05:18:07.547Z,100132.67
2018-03-22T05:20:35.194Z,100137.81
2018-03-22T05:23:02.786Z,100146.75
2018-03-22T05:25:30.426Z,100152.22
2018-03-22T05:27:58.027Z,100149.56
2018-03-22T05:30:25.645Z,100152.09
2018-03-22T05:32:53.316Z,100151.69
2018-03-22T05:35:20.944Z,100148.16
2018-03-22T05:37:48.548Z,100149.97
2018-03-22T05:40:16.343Z,100143.02
2018-03-22T05:42:43.986Z,100153.36
2018-03-22T05:45:11.663Z,100155.64
2018-03-22T05:47:39.309Z,100152.84
2018-03-22T05:50:06.922Z,100152.66
2018-03-22T05:52:34.627Z,100144.33
2018-03-22T05:55:02.249Z,100144.98
2018-03-22T05:57:29.868Z,100147.34
2018-03-22T05:59:57.502Z,100148.89
2018-03-22T06:02:25.092Z,100149.44
2018-03-22T06:04:52.684Z,100158.59
2018-03-22T06:07:20.331Z,100152.89
2018-03-22T06:09:47.931Z,100155.41
2018-03-22T06:12:15.526Z,100149.04
2018-03-22T06:14:43.127Z,100152.91
2018-03-22T06:17:10.780Z,100155.52
2018-03-22T06:19:38.427Z,100175.59
2018-03-22T06:22:06.021Z,100165.84
2018-03-22T06:24:33.623Z,100173.23
2018-03-22T06:27:01.223Z,100179.34
2018-03-22T06:29:28.842Z,100181.07
2018-03-22T06:31:56.475Z,100185.51
2018-03-22T06:34:24.086Z,100178.66
2018-03-22T06:36:51.720Z,100175.41
2018-03-22T06:39:19.364Z,100175.70
2018-03-22T06:41:47.011Z,100173.23
2018-03-22T06:44:14.614Z,100170.34
2018-03-22T06:46:42.243Z,100174.28
2018-03-22T06:49:09.854Z,100186.17
2018-03-22T06:51:37.472Z,100181.45
2018-03-22T06:54:05.195Z,100185.22
2018-03-22T06:56:33.635Z,100190.91
2018-03-22T06:59:01.291Z,100192.58
2018-03-22T07:01:28.951Z,100191.50
2018-03-22T07:03:56.546Z,100193.84
2018-03-22T07:06:24.189Z,100195.64
2018-03-22T07:08:51.786Z,100199.83
2018-03-22T07:11:19.416Z,100200.00
2018-03-22T07:13:47.003Z,100199.38
2018-03-22T07:16:14.627Z,100192.76
2018-03-22T07:18:42.278Z,100195.36
2018-03-22T07:21:09.898Z,100199.00
2018-03-22T07:23:37.511Z,100197.95
2018-03-22T07:26:05.111Z,100186.33
2018-03-22T07:28:32.734Z,100184.02
2018-03-22T07:31:00.416Z,100183.13
2018-03-22T07:33:27.999Z,100179.23
2018-03-22T07:35:55.709Z,100186.80
2018-03-22T07:38:23.347Z,100192.09
2018-03-22T07:40:50.950Z,100188.48
2018-03-22T07:43:24.551Z,100183.09
2018-03-22T07:45:52.143Z,100187.69
2018-03-22T07:48:19.911Z,100187.00
2018-03-22T07:50:47.551Z,100191.48
2018-03-22T07:53:15.186Z,100193.94
2018-03-22T07:55:42.810Z,100189.47
2018-03-22T07:58:10.580Z,100185.03
2018-03-22T08:00:38.207Z,100189.91
2018-03-22T08:03:05.878Z,100201.03
2018-03-22T08:05:33.551Z,100198.12
2018-03-22T08:08:01.183Z,100206.06
2018-03-22T08:10:28.818Z,100203.00
2018-03-22T08:12:56.494Z,100193.27
2018-03-22T08:15:24.202Z,100194.04
2018-03-22T08:17:51.979Z,100188.30
2018-03-22T08:20:19.663Z,100188.80
2018-03-22T08:22:47.290Z,100188.12
2018-03-22T08:25:14.931Z,100178.57
2018-03-22T08:27:42.581Z,100171.17
2018-03-22T08:30:10.212Z,100166.56
2018-03-22T08:32:37.837Z,100166.30
2018-03-22T08:35:05.456Z,100164.13
2018-03-22T08:37:33.151Z,100167.96
2018-03-22T08:40:00.780Z,100154.92
2018-03-22T08:42:28.374Z,100151.22
2018-03-22T08:44:56.047Z,100151.97
2018-03-22T08:47:23.675Z,100161.19
2018-03-22T08:49:51.311Z,100160.73
2018-03-22T08:52:18.903Z,100154.04
2018-03-22T08:54:46.499Z,100143.48
2018-03-22T08:57:14.232Z,100148.99
2018-03-22T08:59:41.898Z,100134.31
2018-03-22T09:02:09.492Z,100132.21
2018-03-22T09:04:37.126Z,100129.32
2018-03-22T09:07:04.771Z,100126.25
2018-03-22T09:09:32.378Z,100133.25
2018-03-22T09:12:00.187Z,100130.77
2018-03-22T09:14:27.778Z,100131.50
2018-03-22T09:16:55.419Z,100133.38
2018-03-22T09:19:23.023Z,100125.44
2018-03-22T09:21:50.610Z,100106.31
2018-03-22T09:24:18.236Z,100109.92
2018-03-22T09:26:51.455Z,100116.55
2018-03-22T09:29:19.147Z,100110.38
2018-03-22T09:31:46.782Z,100102.99
2018-03-22T09:34:14.383Z,100106.80
2018-03-22T09:36:42.023Z,100110.28
2018-03-22T09:39:09.711Z,100101.73
2018-03-22T09:41:37.359Z,100096.45
2018-03-22T09:44:04.958Z,100079.12
2018-03-22T09:46:32.575Z,100084.71
2018-03-22T09:49:00.231Z,100082.83
2018-03-22T09:51:27.834Z,100069.23
2018-03-22T09:53:55.426Z,100064.83
2018-03-22T09:56:23.099Z,100062.89
2018-03-22T09:58:50.699Z,100059.15
2018-03-22T10:01:18.290Z,100051.70
2018-03-22T10:03:45.899Z,100051.95
2018-03-22T10:06:13.526Z,100043.78
2018-03-22T10:08:41.183Z,100032.25
2018-03-22T10:11:08.788Z,100035.73
2018-03-22T10:13:36.422Z,100021.71
2018-03-22T10:16:04.070Z,100012.92
2018-03-22T10:18:31.680Z,100002.36
2018-03-22T10:20:59.311Z,100001.38
2018-03-22T10:23:26.955Z,99985.34
2018-03-22T10:25:54.539Z,99985.52
2018-03-22T10:28:22.166Z,100004.28
2018-03-22T10:30:49.804Z,100020.97
2018-03-22T10:33:17.391Z,100016.52
2018-03-22T10:35:45.023Z,100002.68
2018-03-22T10:38:12.611Z,100011.33
2018-03-22T10:40:40.203Z,100008.92
2018-03-22T10:43:07.799Z,100007.69
2018-03-22T10:45:35.390Z,99994.44
2018-03-22T10:48:03.072Z,99999.22
2018-03-22T10:50:30.679Z,100006.34
2018-03-22T10:52:58.303Z,100005.57
2018-03-22T10:55:25.905Z,100010.55
2018-03-22T10:57:53.511Z,100006.27
2018-03-22T11:00:26.658Z,100017.16
2018-03-22T11:02:54.303Z,100018.22
2018-03-22T11:05:21.910Z,100014.97
2018-03-22T11:07:49.527Z,100014.13
2018-03-22T11:10:17.169Z,100011.00
2018-03-22T11:12:44.902Z,100017.98
2018-03-22T11:15:12.539Z,100017.36
2018-03-22T11:17:40.330Z,100010.14
2018-03-22T11:20:08.094Z,100003.71
2018-03-22T11:22:35.779Z,100001.19
2018-03-22T11:25:03.436Z,99995.70
2018-03-22T11:27:31.100Z,99997.86
2018-03-22T11:29:58.698Z,99996.16
2018-03-22T11:32:26.302Z,99993.50
2018-03-22T11:34:53.902Z,99982.17
2018-03-22T11:37:21.527Z,99967.20
2018-03-22T11:39:49.123Z,99965.06
2018-03-22T11:42:16.736Z,99963.91
2018-03-22T11:44:44.380Z,99971.03
2018-03-22T11:47:12.003Z,99961.13
2018-03-22T11:49:39.611Z,99955.37
2018-03-22T11:52:07.215Z,99956.27
2018-03-22T11:54:34.854Z,99957.19
2018-03-22T11:57:02.449Z,99952.77
2018-03-22T11:59:30.042Z,99953.02
2018-03-22T12:01:57.706Z,99948.55
2018-03-22T12:04:25.300Z,99939.73
2018-03-22T12:06:52.903Z,99938.84
2018-03-22T12:09:20.494Z,99944.41
2018-03-22T12:11:48.103Z,99936.39
2018-03-22T12:14:15.699Z,99936.92
2018-03-22T12:16:43.335Z,99937.73
2018-03-22T12:19:10.923Z,99922.41
2018-03-22T12:21:38.576Z,99925.61
2018-03-22T12:24:06.248Z,99901.05
2018-03-22T12:26:33.875Z,99890.82
2018-03-22T12:29:01.485Z,99888.93
2018-03-22T12:31:29.083Z,99890.52
2018-03-22T12:33:56.675Z,99888.51
2018-03-22T12:36:24.315Z,99877.91
2018-03-22T12:38:51.911Z,99880.44
2018-03-22T12:41:19.503Z,99882.61
2018-03-22T12:43:47.137Z,99888.98
2018-03-22T12:46:14.760Z,99881.50
2018-03-22T12:48:42.346Z,99893.41
2018-03-22T12:51:09.947Z,99902.13
2018-03-22T12:53:37.542Z,99919.41
2018-03-22T12:56:05.174Z,99902.17
2018-03-22T12:58:32.770Z,99890.00
2018-03-22T13:01:00.359Z,99888.80
2018-03-22T13:03:27.983Z,99887.59
2018-03-22T13:05:55.601Z,99899.63
2018-03-22T13:08:23.231Z,99890.39
2018-03-22T13:10:50.894Z,99875.28
2018-03-22T13:13:18.491Z,99873.66
2018-03-22T13:15:46.106Z,99850.03
2018-03-22T13:18:13.731Z,99842.80
2018-03-22T13:20:41.344Z,99820.00
2018-03-22T13:23:08.931Z,99794.27
2018-03-22T13:25:36.517Z,99783.42
2018-03-22T13:28:04.164Z,99789.55
2018-03-22T13:30:31.755Z,99810.13
2018-03-22T13:32:59.342Z,99807.94
2018-03-22T13:35:26.990Z,99800.63
2018-03-22T13:37:54.622Z,99803.58
2018-03-22T13:40:22.223Z,99803.69
2018-03-22T13:42:49.823Z,99805.26
2018-03-22T13:45:17.443Z,99818.86
2018-03-22T13:47:45.052Z,99814.27
2018-03-22T13:50:12.698Z,99821.85
2018-03-22T13:52:40.407Z,99827.48
2018-03-22T13:55:08.007Z,99816.67
2018-03-22T13:57:35.600Z,99810.72
2018-03-22T14:00:03.215Z,99794.70
2018-03-22T14:02:30.806Z,99805.13
2018-03-22T14:04:58.391Z,99803.08
2018-03-22T14:07:26.022Z,99785.38
2018-03-22T14:09:53.607Z,99789.66
2018-03-22T14:12:21.191Z,99798.73
2018-03-22T14:14:48.813Z,99793.15
2018-03-22T14:17:16.415Z,99790.05
2018-03-22T14:19:44.044Z,99779.37
2018-03-22T14:22:11.648Z,99768.98
2018-03-22T14:24:39.266Z,99767.77
2018-03-22T14:27:06.867Z,99764.22
2018-03-22T14:29:34.476Z,99761.62
2018-03-22T14:32:02.123Z,99762.61
2018-03-22T14:34:29.711Z,99759.96
2018-03-22T14:36:57.418Z,99757.45
2018-03-22T14:39:25.152Z,99747.16
2018-03-22T14:41:52.759Z,99752.75
2018-03-22T14:44:20.355Z,99752.95
2018-03-22T14:46:48.001Z,99758.59
2018-03-22T14:49:15.671Z,99750.37
2018-03-22T14:51:43.268Z,99749.09
2018-03-22T14:54:11.251Z,99750.38
2018-03-22T14:56:38.842Z,99751.48
2018-03-22T14:59:06.424Z,99747.18
2018-03-22T15:01:34.052Z,99738.05
2018-03-22T15:04:01.667Z,99713.36
2018-03-22T15:06:29.256Z,99704.41
2018-03-22T15:08:56.843Z,99710.23
2018-03-22T15:11:24.533Z,99706.81
2018-03-22T15:13:52.127Z,99705.44
2018-03-22T15:16:19.715Z,99693.17
2018-03-22T15:18:47.342Z,99695.25
2018-03-22T15:21:14.988Z,99704.06
2018-03-22T15:23:42.657Z,99697.98
2018-03-22T15:26:10.251Z,99691.55
2018-03-22T15:28:37.876Z,99682.14
2018-03-22T15:31:05.479Z,99688.30
2018-03-22T15:33:33.083Z,99691.04
2018-03-22T15:36:00.705Z,99699.65
2018-03-22T15:38:28.291Z,99703.28
2018-03-22T15:40:55.881Z,99693.27
2018-03-22T15:43:23.552Z,99686.76
2018-03-22T15:45:51.152Z,99685.50
2018-03-22T15:48:18.755Z,99688.18
2018-03-22T15:50:46.339Z,99695.98
2018-03-22T15:53:13.947Z,99702.21
2018-03-22T15:55:41.566Z,99701.45
2018-03-22T15:58:09.167Z,99708.60
2018-03-22T16:00:36.770Z,99704.88
2018-03-22T16:03:04.389Z,99712.28
2018-03-22T16:05:32.026Z,99708.89
2018-03-22T16:07:59.628Z,99707.10
2018-03-22T16:10:27.284Z,99694.05
2018-03-22T16:12:54.875Z,99697.10
2018-03-22T16:15:22.479Z,99706.55
2018-03-22T16:17:50.067Z,99703.18
2018-03-22T16:20:17.692Z,99693.44
2018-03-22T16:22:45.411Z,99692.73
2018-03-22T16:25:13.032Z,99692.16
2018-03-22T16:27:40.667Z,99692.09
2018-03-22T16:30:08.251Z,99685.68
2018-03-22T16:32:35.838Z,99685.76
2018-03-22T16:35:03.515Z,99675.31
2018-03-22T16:37:31.130Z,99660.61
2018-03-22T16:39:58.720Z,99672.77
2018-03-22T16:42:26.335Z,99663.48
2018-03-22T16:44:53.992Z,99662.10
2018-03-22T16:47:21.582Z,99671.84
2018-03-22T16:49:49.256Z,99670.55
2018-03-22T16:52:16.895Z,99665.61
2018-03-22T16:54:44.482Z,99669.85
2018-03-22T16:57:12.076Z,99659.29
2018-03-22T16:59:39.701Z,99660.27
2018-03-22T17:02:07.302Z,99638.70
2018-03-22T17:04:34.896Z,99638.36
2018-03-22T17:07:02.499Z,99624.02
2018-03-22T17:09:30.131Z,99619.37
2018-03-22T17:11:57.723Z,99618.19
2018-03-22T17:14:25.307Z,99606.88
2018-03-22T17:16:52.911Z,99604.20
2018-03-22T17:19:20.517Z,99612.27
2018-03-22T17:21:48.211Z,99597.68
2018-03-22T17:24:15.802Z,99621.31
2018-03-22T17:26:43.422Z,99627.52
2018-03-22T17:29:11.090Z,99607.57
2018-03-22T17:31:38.723Z,99600.23
2018-03-22T17:34:06.307Z,99629.69
2018-03-22T17:36:33.930Z,99622.67
2018-03-22T17:39:01.520Z,99619.73
2018-03-22T17:41:29.116Z,99635.80
2018-03-22T17:43:56.739Z,99624.87
2018-03-22T17:46:24.332Z,99608.92
2018-03-22T17:48:51.999Z,99603.34
2018-03-22T17:51:19.631Z,99595.46
2018-03-22T17:53:47.259Z,99625.22
2018-03-22T17:56:14.851Z,99659.00
2018-03-22T17:58:42.435Z,99641.09
2018-03-22T18:01:10.074Z,99633.16
2018-03-22T18:03:37.678Z,99613.47
2018-03-22T18:06:05.339Z,99584.83
2018-03-22T18:08:33.009Z,99566.20
2018-03-22T18:11:00.704Z,99567.44
2018-03-22T18:13:28.371Z,99556.69
2018-03-22T18:15:55.971Z,99555.74
2018-03-22T18:18:23.563Z,99541.93
2018-03-22T18:20:51.217Z,99532.05
2018-03-22T18:23:18.841Z,99522.50
2018-03-22T18:25:46.460Z,99504.53
2018-03-22T18:28:14.123Z,99491.83
2018-03-22T18:30:41.742Z,99479.36
2018-03-22T18:33:09.326Z,99478.80
2018-03-22T18:35:40.131Z,99478.09
2018-03-22T18:38:07.766Z,99480.14
2018-03-22T18:40:35.540Z,99499.63
2018-03-22T18:43:03.135Z,99505.67
2018-03-22T18:45:30.731Z,99499.00
2018-03-22T18:47:58.402Z,99509.56
2018-03-22T18:50:25.998Z,99526.03
2018-03-22T18:52:53.596Z,99513.19
2018-03-22T18:55:21.191Z,99512.31
2018-03-22T18:57:48.867Z,99506.69
2018-03-22T19:00:16.494Z,99516.98
2018-03-22T19:02:44.082Z,99523.96
2018-03-22T19:05:11.675Z,99537.64
2018-03-22T19:07:39.303Z,99552.77
2018-03-22T19:10:06.891Z,99546.00
2018-03-22T19:12:34.478Z,99546.06
2018-03-22T19:15:02.083Z,99533.03
2018-03-22T19:17:29.675Z,99506.69
2018-03-22T19:19:57.298Z,99485.00
2018-03-22T19:22:24.887Z,99478.08
2018-03-22T19:24:52.478Z,99461.63
2018-03-22T19:27:20.156Z,99458.95
2018-03-22T19:29:47.752Z,99449.05
2018-03-22T19:32:15.340Z,99413.25
2018-03-22T19:34:42.922Z,99408.87
2018-03-22T19:37:10.517Z,99388.98
2018-03-22T19:39:38.135Z,99374.77
2018-03-22T19:42:05.730Z,99378.19
2018-03-22T19:44:33.367Z,99376.47
2018-03-22T19:47:00.951Z,99367.82
2018-03-22T19:49:28.551Z,99351.04
2018-03-22T19:51:56.183Z,99341.78
2018-03-22T19:54:23.772Z,99339.69
2018-03-22T19:56:51.367Z,99347.14
2018-03-22T19:59:18.983Z,99328.11
2018-03-22T20:01:46.635Z,99335.86
2018-03-22T20:04:14.236Z,99328.44
2018-03-22T20:06:41.832Z,99330.14
2018-03-22T20:09:09.460Z,99322.84
2018-03-22T20:11:37.050Z,99331.53
2018-03-22T20:14:04.659Z,99336.63
2018-03-22T20:16:32.255Z,99315.05
2018-03-22T20:18:59.855Z,99318.17
2018-03-22T20:21:27.455Z,99302.64
2018-03-22T20:23:55.114Z,99323.70
2018-03-22T20:26:22.748Z,99328.01
2018-03-22T20:28:50.331Z,99316.76
2018-03-22T20:31:17.911Z,99309.45
2018-03-22T20:33:45.571Z,99289.66
2018-03-22T20:36:13.179Z,99276.16
2018-03-22T20:38:40.804Z,99255.88
2018-03-22T20:41:08.403Z,99239.93
2018-03-22T20:43:36.023Z,99241.69
2018-03-22T20:46:03.707Z,99250.39
2018-03-22T20:48:31.319Z,99250.31
2018-03-22T20:50:58.908Z,99242.09
2018-03-22T20:53:26.511Z,99259.88
2018-03-22T20:55:54.096Z,99264.20
2018-03-22T20:58:21.782Z,99277.52
2018-03-22T21:00:49.382Z,99289.52
2018-03-22T21:03:16.971Z,99285.64
2018-03-22T21:05:44.603Z,99278.44
2018-03-22T21:08:12.327Z,99272.30
2018-03-22T21:10:39.936Z,99246.36
2018-03-22T21:13:07.555Z,99260.53
2018-03-22T21:15:35.158Z,99255.47
2018-03-22T21:18:02.755Z,99270.09
2018-03-22T21:20:30.388Z,99281.37
2018-03-22T21:22:58.011Z,99277.55
2018-03-22T21:25:25.644Z,99278.30
2018-03-22T21:27:53.255Z,99268.50
2018-03-22T21:30:20.887Z,99232.91
2018-03-22T21:32:48.595Z,99192.78
2018-03-22T21:35:16.183Z,99164.35
2018-03-22T21:37:43.808Z,99145.39
2018-03-22T21:40:11.426Z,99141.03
2018-03-22T21:42:39.039Z,99151.83
2018-03-22T21:45:06.619Z,99152.67
2018-03-22T21:47:34.265Z,99146.23
2018-03-22T21:50:01.953Z,99128.94
2018-03-22T21:52:41.422Z,99132.41
2018-03-22T21:55:09.026Z,99139.77
2018-03-22T21:57:36.608Z,99143.20
2018-03-22T22:00:04.268Z,99112.97
2018-03-22T22:02:31.858Z,99081.45
2018-03-22T22:04:59.475Z,99056.43
2018-03-22T22:07:27.107Z,99046.08
2018-03-22T22:09:54.742Z,99055.57
2018-03-22T22:12:22.340Z,99059.45
2018-03-22T22:14:49.927Z,99060.31
2018-03-22T22:17:17.547Z,99074.14
2018-03-22T22:19:45.215Z,99075.44
2018-03-22T22:22:12.830Z,99048.25
2018-03-22T22:24:40.463Z,99021.92
2018-03-22T22:27:08.122Z,98993.86
2018-03-22T22:29:35.722Z,98964.93
2018-03-22T22:32:03.323Z,98981.77
2018-03-22T22:34:30.978Z,98974.00
2018-03-22T22:36:58.567Z,98959.33
2018-03-22T22:39:26.163Z,98963.64
2018-03-22T22:41:53.760Z,98968.39
2018-03-22T22:44:21.390Z,99002.53
2018-03-22T22:46:48.991Z,99000.80
2018-03-22T22:49:16.599Z,98969.28
2018-03-22T22:51:44.206Z,98963.67
2018-03-22T22:54:11.839Z,98990.88
2018-03-22T22:56:39.456Z,98966.23
2018-03-22T22:59:07.086Z,98938.60
2018-03-22T23:01:34.731Z,98912.70
2018-03-22T23:04:02.336Z,98921.36
2018-03-22T23:06:29.914Z,98916.17
2018-03-22T23:08:57.558Z,98882.48
2018-03-22T23:11:25.179Z,98901.48
2018-03-22T23:13:52.822Z,98898.02
2018-03-22T23:16:20.410Z,98861.34
2018-03-22T23:18:48.002Z,98841.05
2018-03-22T23:21:15.595Z,98835.44
2018-03-22T23:23:43.179Z,98823.80
2018-03-22T23:26:10.836Z,98817.30
2018-03-22T23:28:38.438Z,98814.27
2018-03-22T23:31:06.083Z,98813.87
2018-03-22T23:33:33.703Z,98806.09
2018-03-22T23:36:01.303Z,98790.56
2018-03-22T23:38:28.927Z,98788.80
2018-03-22T23:40:56.531Z,98784.52
2018-03-22T23:43:24.162Z,98788.78
2018-03-22T23:45:51.804Z,98777.58
2018-03-22T23:48:19.376Z,98758.16
2018-03-22T23:50:46.967Z,98753.41
2018-03-22T23:53:14.555Z,98731.84
2018-03-22T23:55:42.234Z,98717.59
2018-03-22T23:58:09.872Z,98737.02
